createdAt,value
2018-09-29T00:01:58.992Z,71.40
2018-09-29T00:04:28.077Z,71.40
2018-09-29T00:06:57.172Z,71.60
2018-09-29T00:09:26.227Z,71.60
2018-09-29T00:11:55.213Z,71.50
2018-09-29T00:14:24.327Z,71.60
2018-09-29T00:16:53.388Z,71.60
2018-09-29T00:19:22.406Z,71.60
2018-09-29T00:21:51.483Z,71.60
2018-09-29T00:24:20.444Z,71.70
2018-09-29T00:26:49.473Z,71.80
2018-09-29T00:29:18.543Z,71.80
2018-09-29T00:31:47.570Z,71.90
2018-09-29T00:34:16.695Z,72.00
2018-09-29T00:36:45.750Z,72.10
2018-09-29T00:39:14.873Z,72.40
2018-09-29T00:41:43.984Z,72.50
2018-09-29T00:44:13.705Z,72.70
2018-09-29T00:46:44.847Z,73.00
2018-09-29T00:49:13.868Z,73.30
2018-09-29T00:51:42.994Z,73.30
2018-09-29T00:54:12.148Z,73.70
2018-09-29T00:56:41.196Z,74.00
2018-09-29T00:59:10.149Z,74.10
2018-09-29T01:01:39.304Z,74.10
2018-09-29T01:04:08.690Z,74.20
2018-09-29T01:06:37.711Z,74.70
2018-09-29T01:09:07.125Z,74.90
2018-09-29T01:11:36.112Z,75.10
2018-09-29T01:14:05.271Z,75.00
2018-09-29T01:16:34.336Z,75.20
2018-09-29T01:19:04.231Z,75.50
2018-09-29T01:21:33.389Z,75.60
2018-09-29T01:24:02.503Z,76.00
2018-09-29T01:26:31.605Z,76.20
2018-09-29T01:29:00.633Z,76.50
2018-09-29T01:31:29.653Z,76.30
2018-09-29T01:40:43.366Z,76.60
2018-09-29T01:43:12.712Z,76.70
2018-09-29T01:45:41.707Z,77.10
2018-09-29T01:48:10.710Z,76.90
2018-09-29T01:50:39.798Z,77.00
2018-09-29T01:53:08.948Z,77.20
2018-09-29T01:55:38.005Z,77.20
2018-09-29T01:58:06.994Z,77.60
2018-09-29T02:00:36.201Z,77.60
2018-09-29T02:03:10.190Z,77.80
2018-09-29T02:05:40.300Z,77.80
2018-09-29T02:08:09.331Z,77.80
2018-09-29T02:10:38.338Z,77.70
2018-09-29T02:13:07.394Z,77.70
2018-09-29T02:15:36.428Z,78.00
2018-09-29T02:18:05.439Z,78.10
2018-09-29T02:20:34.482Z,78.10
2018-09-29T02:23:03.502Z,78.00
2018-09-29T02:25:32.641Z,78.10
2018-09-29T02:28:01.651Z,78.20
2018-09-29T02:30:30.655Z,78.40
2018-09-29T02:32:59.748Z,78.70
2018-09-29T02:35:28.863Z,78.80
2018-09-29T02:37:57.885Z,79.00
2018-09-29T02:40:26.885Z,79.50
2018-09-29T02:42:56.036Z,79.50
2018-09-29T02:45:25.132Z,79.70
2018-09-29T02:47:54.303Z,79.90
2018-09-29T02:50:23.538Z,80.20
2018-09-29T02:52:52.653Z,80.50
2018-09-29T02:55:22.542Z,80.40
2018-09-29T02:57:51.527Z,80.50
2018-09-29T03:00:20.738Z,80.60
2018-09-29T03:02:49.754Z,80.80
2018-09-29T03:05:18.895Z,80.90
2018-09-29T03:07:48.038Z,80.90
2018-09-29T03:10:17.074Z,81.10
2018-09-29T03:12:46.061Z,81.10
2018-09-29T03:15:15.182Z,81.20
2018-09-29T03:17:44.182Z,81.70
2018-09-29T03:20:13.221Z,81.80
2018-09-29T03:22:42.252Z,82.10
2018-09-29T03:25:11.433Z,81.90
2018-09-29T03:27:40.914Z,82.10
2018-09-29T03:30:10.018Z,82.20
2018-09-29T03:32:39.131Z,82.20
2018-09-29T03:35:08.161Z,82.40
2018-09-29T03:37:37.195Z,82.50
2018-09-29T03:40:06.363Z,82.80
2018-09-29T03:42:35.657Z,83.00
2018-09-29T03:45:04.789Z,83.30
2018-09-29T03:47:33.787Z,83.30
2018-09-29T03:50:02.887Z,83.20
2018-09-29T03:52:31.873Z,83.20
2018-09-29T03:55:00.889Z,83.20
2018-09-29T03:57:29.955Z,83.50
2018-09-29T03:59:59.107Z,83.70
2018-09-29T04:02:28.086Z,83.50
2018-09-29T04:04:57.206Z,83.70
2018-09-29T04:07:26.190Z,83.80
2018-09-29T04:09:55.190Z,83.90
2018-09-29T04:12:24.232Z,84.00
2018-09-29T04:14:53.278Z,84.00
2018-09-29T04:17:22.348Z,83.60
2018-09-29T04:19:51.402Z,83.80
2018-09-29T04:22:20.441Z,83.70
2018-09-29T04:24:49.476Z,83.90
2018-09-29T04:27:18.520Z,84.10
2018-09-29T04:29:47.508Z,84.20
2018-09-29T04:32:16.498Z,84.20
2018-09-29T04:34:45.612Z,84.40
2018-09-29T04:37:14.610Z,84.60
2018-09-29T04:39:43.818Z,84.60
2018-09-29T04:42:12.814Z,85.00
2018-09-29T04:44:41.988Z,85.20
2018-09-29T04:47:10.968Z,85.30
2018-09-29T04:49:39.976Z,85.10
2018-09-29T04:52:08.987Z,85.50
2018-09-29T04:54:38.089Z,85.60
2018-09-29T04:57:07.157Z,85.70
2018-09-29T04:59:36.421Z,86.00
2018-09-29T05:02:05.393Z,86.20
2018-09-29T05:04:34.771Z,86.10
2018-09-29T05:07:03.787Z,86.10
2018-09-29T05:09:33.042Z,86.10
2018-09-29T05:12:02.349Z,86.20
2018-09-29T05:14:35.012Z,86.10
2018-09-29T05:17:06.052Z,86.20
2018-09-29T05:19:37.758Z,86.50
2018-09-29T05:22:08.146Z,86.60
2018-09-29T05:24:43.796Z,86.70
2018-09-29T05:27:17.800Z,86.60
2018-09-29T05:29:48.916Z,86.60
2018-09-29T05:32:18.014Z,86.80
2018-09-29T05:34:51.826Z,87.20
2018-09-29T05:37:21.026Z,87.50
2018-09-29T05:39:52.804Z,87.40
2018-09-29T05:42:26.416Z,87.50
2018-09-29T05:44:55.585Z,87.40
2018-09-29T05:47:26.590Z,87.30
2018-09-29T05:49:57.139Z,87.30
2018-09-29T05:52:27.355Z,87.20
2018-09-29T05:54:56.981Z,87.00
2018-09-29T05:57:30.624Z,86.60
2018-09-29T05:59:59.683Z,86.30
2018-09-29T06:02:37.114Z,86.20
2018-09-29T06:05:06.534Z,85.90
2018-09-29T06:07:36.818Z,85.90
2018-09-29T06:10:05.844Z,85.90
2018-09-29T06:12:34.986Z,85.90
2018-09-29T06:15:04.404Z,85.90
2018-09-29T06:17:33.639Z,85.90
2018-09-29T06:20:06.056Z,85.50
2018-09-29T06:22:41.687Z,85.40
2018-09-29T06:25:10.724Z,85.10
2018-09-29T06:27:45.673Z,85.40
2018-09-29T06:30:17.332Z,85.40
2018-09-29T06:32:46.634Z,85.10
2018-09-29T06:35:17.274Z,84.80
2018-09-29T06:37:47.177Z,84.60
2018-09-29T06:40:16.188Z,84.20
2018-09-29T06:42:54.492Z,84.00
2018-09-29T06:45:23.594Z,83.50
2018-09-29T06:47:58.486Z,83.40
2018-09-29T06:50:27.473Z,83.20
2018-09-29T06:52:56.539Z,83.00
2018-09-29T06:55:25.653Z,82.80
2018-09-29T06:58:03.318Z,82.50
2018-09-29T07:00:35.143Z,82.20
2018-09-29T07:03:10.047Z,81.70
2018-09-29T07:05:39.464Z,81.20
2018-09-29T07:08:08.776Z,80.70
2018-09-29T07:10:42.793Z,80.70
2018-09-29T07:13:12.021Z,80.40
2018-09-29T07:15:43.251Z,79.80
2018-09-29T07:18:12.336Z,79.50
2018-09-29T07:20:45.046Z,79.00
2018-09-29T07:23:17.300Z,78.30
2018-09-29T07:25:46.728Z,78.40
2018-09-29T07:28:16.704Z,77.00
2018-09-29T07:30:45.864Z,76.70
2018-09-29T07:33:16.695Z,76.20
2018-09-29T07:35:50.170Z,75.70
2018-09-29T07:38:19.549Z,72.90
2018-09-29T07:40:48.941Z,67.60
2018-09-29T07:43:31.073Z,61.30
2018-09-29T08:01:05.339Z,51.20
2018-09-29T08:03:35.185Z,47.10
2018-09-29T08:06:05.273Z,45.80
2018-09-29T08:08:35.441Z,45.20
2018-09-29T08:11:04.554Z,44.90
2018-09-29T08:13:33.639Z,45.80
2018-09-29T08:16:03.523Z,44.90
2018-09-29T08:18:32.864Z,41.90
2018-09-29T08:21:03.289Z,43.40
2018-09-29T08:23:32.385Z,44.70
2018-09-29T08:26:02.245Z,43.80
2018-09-29T08:28:31.243Z,44.40
2018-09-29T08:31:00.209Z,44.50
2018-09-29T08:33:29.276Z,44.50
2018-09-29T08:35:59.512Z,45.70
2018-09-29T08:38:30.026Z,46.00
2018-09-29T08:40:59.495Z,44.10
2018-09-29T08:43:30.757Z,44.70
2018-09-29T08:46:00.257Z,44.20
2018-09-29T08:48:32.843Z,42.80
2018-09-29T08:51:04.088Z,43.40
2018-09-29T08:53:33.568Z,42.10
2018-09-29T08:56:03.064Z,42.60
2018-09-29T08:58:32.919Z,41.90
2018-09-29T09:01:03.946Z,42.50
2018-09-29T09:03:38.520Z,40.90
2018-09-29T09:06:09.390Z,41.90
2018-09-29T09:08:38.495Z,43.00
2018-09-29T09:11:08.751Z,42.90
2018-09-29T09:13:38.768Z,43.00
2018-09-29T09:16:11.910Z,42.10
2018-09-29T09:18:42.141Z,42.70
2018-09-29T09:21:11.587Z,42.10
2018-09-29T09:23:40.897Z,41.50
2018-09-29T09:26:09.885Z,41.20
2018-09-29T09:28:39.139Z,40.70
2018-09-29T09:31:09.067Z,39.50
2018-09-29T09:33:38.247Z,37.00
2018-09-29T09:36:07.589Z,36.50
2018-09-29T09:38:37.368Z,38.30
2018-09-29T09:41:08.927Z,38.90
2018-09-29T09:43:38.151Z,40.60
2018-09-29T09:46:07.926Z,37.80
2018-09-29T09:48:38.432Z,36.90
2018-09-29T09:51:08.443Z,36.80
2018-09-29T09:53:38.795Z,38.00
2018-09-29T09:56:07.917Z,34.80
2018-09-29T09:58:38.248Z,35.20
2018-09-29T10:01:12.954Z,34.90
2018-09-29T10:03:47.629Z,35.40
2018-09-29T10:06:17.510Z,34.70
2018-09-29T10:09:00.342Z,34.50
2018-09-29T10:14:18.185Z,35.80
2018-09-29T10:16:50.281Z,35.90
2018-09-29T10:19:27.323Z,36.00
2018-09-29T10:22:13.165Z,35.30
2018-09-29T10:26:26.529Z,33.20
2018-09-29T10:28:55.665Z,34.90
2018-09-29T10:31:44.714Z,33.40
2018-09-29T10:35:47.741Z,34.90
2018-09-29T10:38:19.913Z,35.30
2018-09-29T10:40:52.849Z,35.00
2018-09-29T10:43:25.005Z,34.00
2018-09-29T10:45:59.026Z,34.50
2018-09-29T10:48:28.147Z,35.20
2018-09-29T10:50:58.110Z,35.20
2018-09-29T10:53:27.268Z,34.20
2018-09-29T10:55:56.898Z,34.20
2018-09-29T10:58:48.126Z,36.70
2018-09-29T11:01:39.199Z,36.20
2018-09-29T11:04:21.799Z,33.60
2018-09-29T11:06:59.028Z,32.90
2018-09-29T11:09:28.795Z,36.60
2018-09-29T11:11:58.895Z,39.40
2018-09-29T11:14:28.002Z,37.50
2018-09-29T11:16:57.738Z,36.30
2018-09-29T11:21:07.403Z,35.80
2018-09-29T11:23:42.025Z,36.40
2018-09-29T11:26:14.091Z,36.20
2018-09-29T11:28:59.197Z,36.80
2018-09-29T11:31:54.097Z,36.00
2018-09-29T11:34:24.273Z,35.70
2018-09-29T11:37:50.678Z,35.30
2018-09-29T11:41:06.293Z,35.50
2018-09-29T11:43:36.086Z,33.90
2018-09-29T11:46:18.309Z,34.20
2018-09-29T11:53:12.847Z,37.00
2018-09-29T11:55:44.230Z,36.90
2018-09-29T11:58:31.257Z,34.40
2018-09-29T12:01:03.001Z,33.40
2018-09-29T12:04:13.022Z,34.30
2018-09-29T12:09:53.093Z,35.80
2018-09-29T12:12:37.190Z,36.50
2018-09-29T12:15:07.314Z,37.80
2018-09-29T12:17:37.639Z,38.00
2018-09-29T12:20:14.649Z,37.50
2018-09-29T12:22:48.322Z,38.70
2018-09-29T12:25:18.591Z,40.00
2018-09-29T12:27:49.208Z,40.90
2018-09-29T12:30:18.693Z,41.90
2018-09-29T12:32:48.149Z,42.40
2018-09-29T12:35:17.176Z,43.30
2018-09-29T12:37:46.247Z,42.70
2018-09-29T12:40:15.265Z,41.30
2018-09-29T12:42:44.420Z,40.00
2018-09-29T12:45:13.725Z,39.70
2018-09-29T12:47:43.003Z,40.30
2018-09-29T12:50:12.477Z,39.50
2018-09-29T12:52:41.694Z,39.10
2018-09-29T12:55:10.793Z,39.20
2018-09-29T12:57:39.865Z,38.80
2018-09-29T13:00:09.037Z,38.90
2018-09-29T13:02:38.598Z,38.50
2018-09-29T13:05:08.178Z,38.20
2018-09-29T13:07:37.394Z,38.00
2018-09-29T13:10:06.747Z,38.10
2018-09-29T13:12:35.925Z,38.00
2018-09-29T13:15:05.103Z,37.80
2018-09-29T13:17:34.365Z,38.30
2018-09-29T13:20:03.502Z,38.50
2018-09-29T13:22:32.769Z,38.40
2018-09-29T13:25:01.852Z,38.00
2018-09-29T13:27:31.074Z,38.10
2018-09-29T13:30:00.189Z,38.60
2018-09-29T13:32:29.286Z,38.60
2018-09-29T13:34:58.486Z,39.50
2018-09-29T13:37:27.910Z,41.00
2018-09-29T13:39:57.235Z,40.70
2018-09-29T13:42:26.433Z,40.30
2018-09-29T13:44:55.880Z,41.70
2018-09-29T13:47:24.991Z,42.80
2018-09-29T13:49:54.577Z,43.90
2018-09-29T13:52:23.631Z,44.20
2018-09-29T13:54:52.684Z,44.60
2018-09-29T13:57:21.854Z,44.90
2018-09-29T13:59:50.869Z,45.20
2018-09-29T14:02:20.158Z,45.30
2018-09-29T14:04:49.116Z,45.00
2018-09-29T14:07:18.379Z,44.70
2018-09-29T14:09:47.542Z,43.70
2018-09-29T14:12:16.768Z,43.40
2018-09-29T14:14:45.853Z,42.40
2018-09-29T14:17:14.975Z,41.70
2018-09-29T14:19:44.207Z,41.00
2018-09-29T14:22:13.458Z,40.60
2018-09-29T14:24:43.511Z,42.00
2018-09-29T14:27:12.530Z,43.00
2018-09-29T14:29:41.579Z,43.00
2018-09-29T14:32:10.677Z,44.00
2018-09-29T14:34:39.727Z,43.90
2018-09-29T14:37:08.869Z,43.20
2018-09-29T14:39:44.502Z,42.80
2018-09-29T14:42:13.623Z,42.50
2018-09-29T14:44:42.768Z,43.20
2018-09-29T14:47:11.893Z,43.40
2018-09-29T14:49:40.971Z,43.80
2018-09-29T14:52:10.131Z,44.80
2018-09-29T14:54:39.159Z,45.60
2018-09-29T14:57:08.309Z,46.40
2018-09-29T14:59:37.444Z,46.50
2018-09-29T15:02:06.485Z,46.40
2018-09-29T15:04:35.696Z,46.50
2018-09-29T15:07:05.171Z,47.50
2018-09-29T15:09:34.342Z,48.20
2018-09-29T15:12:03.732Z,48.70
2018-09-29T15:14:33.119Z,48.90
2018-09-29T15:17:02.167Z,48.80
2018-09-29T15:19:31.381Z,48.20
2018-09-29T15:22:00.395Z,48.00
2018-09-29T15:24:29.570Z,48.10
2018-09-29T15:26:59.799Z,47.80
2018-09-29T15:29:30.030Z,48.00
2018-09-29T15:32:18.379Z,48.10
2018-09-29T15:34:50.171Z,48.30
2018-09-29T15:37:24.828Z,48.40
2018-09-29T15:40:15.626Z,48.80
2018-09-29T15:42:50.350Z,49.20
2018-09-29T15:45:19.727Z,49.50
2018-09-29T15:47:54.531Z,49.50
2018-09-29T15:50:26.054Z,49.50
2018-09-29T15:52:56.130Z,49.40
2018-09-29T15:55:30.090Z,48.60
2018-09-29T15:58:06.735Z,48.80
2018-09-29T16:01:02.138Z,48.70
2018-09-29T16:03:36.135Z,48.30
2018-09-29T16:06:07.484Z,48.20
2018-09-29T16:09:42.185Z,48.70
2018-09-29T16:12:48.143Z,49.20
2018-09-29T16:15:17.336Z,49.50
2018-09-29T16:17:55.753Z,49.50
2018-09-29T16:20:26.255Z,49.90
2018-09-29T16:22:58.075Z,50.50
2018-09-29T16:25:30.574Z,50.80
2018-09-29T16:28:11.892Z,50.80
2018-09-29T16:30:45.379Z,51.10
2018-09-29T16:33:16.539Z,51.20
2018-09-29T16:35:52.169Z,51.50
2018-09-29T16:38:22.467Z,51.60
2018-09-29T16:41:06.883Z,51.70
2018-09-29T16:43:42.190Z,52.00
2018-09-29T16:46:14.035Z,52.30
2018-09-29T16:48:46.762Z,52.70
2018-09-29T16:51:20.915Z,52.10
2018-09-29T16:53:50.006Z,52.30
2018-09-29T16:56:19.227Z,52.20
2018-09-29T16:58:48.294Z,52.40
2018-09-29T17:01:17.388Z,52.40
2018-09-29T17:03:46.832Z,52.40
2018-09-29T17:06:16.142Z,52.50
2018-09-29T17:09:01.838Z,53.20
2018-09-29T17:11:32.354Z,53.50
2018-09-29T17:14:01.628Z,53.60
2018-09-29T17:16:32.045Z,54.10
2018-09-29T17:19:01.820Z,54.90
2018-09-29T17:21:36.733Z,55.00
2018-09-29T17:24:05.879Z,55.40
2018-09-29T17:26:35.839Z,55.30
2018-09-29T17:29:05.005Z,55.10
2018-09-29T17:31:34.199Z,55.60
2018-09-29T17:34:03.460Z,55.80
2018-09-29T17:36:33.932Z,56.10
2018-09-29T17:39:03.492Z,56.20
2018-09-29T17:41:33.203Z,56.80
2018-09-29T17:44:02.526Z,57.10
2018-09-29T17:46:31.969Z,57.20
2018-09-29T17:49:01.288Z,57.80
2018-09-29T17:51:31.288Z,57.90
2018-09-29T17:54:00.491Z,58.40
2018-09-29T17:56:29.715Z,58.80
2018-09-29T17:58:58.927Z,59.70
2018-09-29T18:01:28.299Z,60.30
2018-09-29T18:03:57.727Z,59.80
2018-09-29T18:06:26.974Z,61.40
2018-09-29T18:08:56.292Z,60.00
2018-09-29T18:11:25.429Z,59.80
2018-09-29T18:13:54.799Z,59.80
2018-09-29T18:16:23.903Z,60.00
2018-09-29T18:18:54.113Z,60.40
2018-09-29T18:21:23.552Z,60.80
2018-09-29T18:23:52.567Z,60.90
2018-09-29T18:26:23.208Z,61.60
2018-09-29T18:28:52.603Z,61.80
2018-09-29T18:31:21.700Z,61.90
2018-09-29T18:33:51.035Z,62.50
2018-09-29T18:36:20.772Z,62.60
2018-09-29T18:38:50.030Z,62.80
2018-09-29T18:41:25.835Z,63.00
2018-09-29T18:43:55.648Z,63.10
2018-09-29T18:46:25.073Z,63.70
2018-09-29T18:48:54.316Z,63.70
2018-09-29T18:51:23.600Z,64.60
2018-09-29T18:54:00.353Z,64.10
2018-09-29T18:56:30.460Z,64.70
2018-09-29T18:59:03.298Z,64.60
2018-09-29T19:01:33.244Z,65.00
2018-09-29T19:04:02.742Z,65.30
2018-09-29T19:06:32.373Z,65.80
2018-09-29T19:09:02.156Z,65.70
2018-09-29T19:11:31.732Z,66.20
2018-09-29T19:14:00.904Z,65.60
2018-09-29T19:16:30.927Z,66.10
2018-09-29T19:19:00.798Z,66.60
2018-09-29T19:21:30.046Z,66.80
2018-09-29T19:23:59.337Z,66.70
2018-09-29T19:26:28.483Z,67.00
2018-09-29T19:28:58.561Z,67.20
2018-09-29T19:31:27.699Z,67.30
2018-09-29T19:33:56.849Z,67.10
2018-09-29T19:36:26.170Z,67.30
2018-09-29T19:38:55.511Z,67.60
2018-09-29T19:41:25.038Z,67.70
2018-09-29T19:43:54.343Z,68.10
2018-09-29T19:46:23.634Z,68.20
2018-09-29T19:48:53.676Z,68.00
2018-09-29T19:51:22.948Z,68.10
2018-09-29T19:53:52.944Z,68.20
2018-09-29T19:56:21.975Z,68.40
2018-09-29T19:58:51.242Z,68.20
2018-09-29T20:01:20.454Z,68.20
2018-09-29T20:03:51.514Z,69.30
2018-09-29T20:06:21.482Z,68.50
2018-09-29T20:08:51.374Z,68.30
2018-09-29T20:11:25.843Z,69.50
2018-09-29T20:13:55.942Z,68.60
2018-09-29T20:16:25.306Z,69.00
2018-09-29T20:18:54.467Z,69.00
2018-09-29T20:21:23.585Z,68.70
2018-09-29T20:23:53.913Z,68.80
2018-09-29T20:26:23.217Z,68.70
2018-09-29T20:28:52.629Z,68.90
2018-09-29T20:31:21.998Z,68.60
2018-09-29T20:33:53.879Z,68.30
2018-09-29T20:36:23.991Z,67.90
2018-09-29T20:38:53.273Z,68.10
2018-09-29T20:41:22.408Z,68.50
2018-09-29T20:43:51.670Z,68.90
2018-09-29T20:46:22.418Z,69.20
2018-09-29T20:48:53.772Z,69.30
2018-09-29T20:51:25.235Z,69.30
2018-09-29T20:53:56.316Z,69.40
2018-09-29T20:56:25.432Z,69.90
2018-09-29T20:58:54.788Z,70.20
2018-09-29T21:01:24.536Z,70.50
2018-09-29T21:03:54.140Z,70.40
2018-09-29T21:06:23.655Z,71.10
2018-09-29T21:08:53.574Z,71.30
2018-09-29T21:11:23.302Z,71.80
2018-09-29T21:13:52.968Z,71.70
2018-09-29T21:16:24.969Z,71.90
2018-09-29T21:18:54.116Z,72.10
2018-09-29T21:21:23.214Z,72.10
2018-09-29T21:23:52.352Z,73.10
2018-09-29T21:26:22.092Z,72.20
2018-09-29T21:28:51.443Z,72.20
2018-09-29T21:31:20.614Z,72.00
2018-09-29T21:33:49.768Z,71.90
2018-09-29T21:36:18.923Z,71.70
2018-09-29T21:38:48.098Z,71.30
2018-09-29T21:41:17.496Z,70.90
2018-09-29T21:43:47.400Z,70.50
2018-09-29T21:46:16.638Z,70.60
2018-09-29T21:48:45.709Z,70.50
2018-09-29T21:51:14.860Z,70.40
2018-09-29T21:53:44.134Z,70.70
2018-09-29T21:56:13.315Z,71.50
2018-09-29T21:58:42.515Z,71.00
2018-09-29T22:01:16.872Z,71.10
2018-09-29T22:03:46.004Z,71.60
2018-09-29T22:06:15.023Z,71.50
2018-09-29T22:08:44.172Z,71.40
2018-09-29T22:11:13.784Z,71.10
2018-09-29T22:13:42.959Z,71.10
2018-09-29T22:16:12.080Z,70.60
2018-09-29T22:18:41.401Z,70.80
2018-09-29T22:21:10.600Z,70.40
2018-09-29T22:23:39.626Z,70.40
2018-09-29T22:26:08.927Z,70.70
2018-09-29T22:28:38.865Z,70.90
2018-09-29T22:31:08.947Z,71.30
2018-09-29T22:33:38.168Z,71.10
2018-09-29T22:36:07.728Z,71.00
2018-09-29T22:38:36.992Z,70.50
2018-09-29T22:41:06.412Z,70.80
2018-09-29T22:43:35.588Z,70.70
2018-09-29T22:46:04.835Z,70.60
2018-09-29T22:48:34.073Z,70.80
2018-09-29T22:53:49.545Z,71.30
2018-09-29T22:56:19.086Z,71.50
2018-09-29T22:58:48.308Z,71.70
2018-09-29T23:01:17.371Z,71.90
2018-09-29T23:03:46.472Z,72.20
2018-09-29T23:06:16.423Z,72.20
2018-09-29T23:08:45.464Z,72.60
2018-09-29T23:11:14.662Z,73.00
2018-09-29T23:13:43.839Z,73.10
2018-09-29T23:16:12.897Z,73.50
2018-09-29T23:18:41.992Z,73.60
2018-09-29T23:21:11.008Z,73.80
2018-09-29T23:23:40.236Z,73.90
2018-09-29T23:26:09.321Z,74.00
2018-09-29T23:28:38.356Z,74.20
2018-09-29T23:31:07.434Z,74.10
2018-09-29T23:33:36.724Z,74.20
2018-09-29T23:36:05.738Z,75.10
2018-09-29T23:38:35.828Z,74.60
2018-09-29T23:41:04.824Z,74.80
2018-09-29T23:43:33.932Z,74.80
2018-09-29T23:46:02.960Z,75.10
2018-09-29T23:48:32.030Z,75.20
2018-09-29T23:51:01.243Z,75.60
2018-09-29T23:53:30.336Z,75.70
2018-09-29T23:55:59.370Z,75.80
2018-09-29T23:58:28.418Z,76.00
